Time;durP1;ratioP1;P1;durP2;ratioP2;P2;SDS_P1;SDS_P2;PMS_P1;PMS_P2;Temp;Humidity;BMP_temperature;BMP_pressure;BME280_temperature;BME280_humidity;BME280_pressure;Samples;Min_cycle;Max_cycle;Signal;HPM_P1;HPM_P2
2022/06/30 00:00:44;;;;;;;6.70;5.75;;;22.60;99.90;;;;;;5042306;28;20044;-78
2022/06/30 00:03:10;;;;;;;6.28;5.65;;;22.50;99.90;;;;;;5024624;28;20426;-78
2022/06/30 00:05:36;;;;;;;7.15;5.20;;;22.40;99.90;;;;;;5043102;28;20036;-78
2022/06/30 00:08:02;;;;;;;6.50;5.20;;;22.40;99.90;;;;;;5044132;28;20039;-78
2022/06/30 00:10:28;;;;;;;6.65;5.57;;;22.30;99.90;;;;;;5041138;28;20498;-77
2022/06/30 00:12:53;;;;;;;6.93;5.70;;;22.20;99.90;;;;;;5024166;28;20055;-78
2022/06/30 00:15:20;;;;;;;6.15;5.30;;;22.20;99.90;;;;;;5039577;28;20045;-78
2022/06/30 00:17:45;;;;;;;6.10;5.13;;;22.10;99.90;;;;;;5042866;28;20033;-77
2022/06/30 00:20:11;;;;;;;6.63;4.70;;;22.00;99.90;;;;;;5025412;28;20060;-77
2022/06/30 00:22:36;;;;;;;7.68;4.80;;;22.00;99.90;;;;;;5026410;28;20044;-77
2022/06/30 00:25:03;;;;;;;4.80;4.30;;;21.90;99.90;;;;;;5039864;28;20047;-78
2022/06/30 00:27:28;;;;;;;7.68;4.15;;;21.80;99.90;;;;;;5025589;28;20036;-78
2022/06/30 00:29:54;;;;;;;6.55;4.25;;;21.70;99.90;;;;;;5039634;28;20041;-77
2022/06/30 00:32:19;;;;;;;4.93;4.38;;;21.70;99.90;;;;;;5039799;28;20067;-78
2022/06/30 00:34:45;;;;;;;5.22;4.22;;;21.70;99.90;;;;;;5024369;28;20037;-78
2022/06/30 00:37:10;;;;;;;5.05;4.55;;;21.60;99.90;;;;;;5043238;28;20037;-77
2022/06/30 00:39:36;;;;;;;5.10;4.60;;;21.60;99.90;;;;;;5041385;28;20038;-77
2022/06/30 00:42:04;;;;;;;5.07;4.57;;;21.50;99.90;;;;;;5025239;28;20041;-78
2022/06/30 00:44:30;;;;;;;5.72;4.68;;;21.40;99.90;;;;;;5043569;28;20044;-78
2022/06/30 00:46:56;;;;;;;6.15;4.80;;;21.40;99.90;;;;;;5044405;28;20041;-77
2022/06/30 00:49:22;;;;;;;5.65;4.63;;;21.30;99.90;;;;;;5029943;28;20103;-78
2022/06/30 00:51:48;;;;;;;6.28;4.50;;;21.30;99.90;;;;;;5045691;28;20030;-77
2022/06/30 00:54:13;;;;;;;8.65;4.78;;;21.20;99.90;;;;;;5044284;28;20041;-78
2022/06/30 00:56:43;;;;;;;5.05;4.20;;;21.10;99.90;;;;;;5044672;28;20067;-78
2022/06/30 00:59:12;;;;;;;5.68;4.15;;;21.00;99.90;;;;;;5029758;28;20116;-77
2022/06/30 01:01:38;;;;;;;4.78;4.28;;;21.00;99.90;;;;;;5029059;28;20044;-77
2022/06/30 01:04:06;;;;;;;5.05;4.05;;;20.90;99.90;;;;;;5045446;28;20037;-78
2022/06/30 01:06:32;;;;;;;6.57;4.25;;;21.00;99.90;;;;;;5046382;28;20422;-78
2022/06/30 01:08:58;;;;;;;4.65;3.70;;;20.90;99.90;;;;;;5044654;28;20081;-78
2022/06/30 01:14:08;;;;;;;4.35;3.70;;;20.80;99.90;;;;;;5041859;28;20053;-78
2022/06/30 01:16:33;;;;;;;4.40;3.65;;;20.80;99.90;;;;;;5028394;28;20041;-77
2022/06/30 01:18:59;;;;;;;6.45;3.75;;;20.70;99.90;;;;;;5044615;28;20049;-77
2022/06/30 01:21:28;;;;;;;5.80;3.83;;;20.70;99.90;;;;;;5046006;28;20931;-78
2022/06/30 01:23:54;;;;;;;10.70;3.70;;;20.60;99.90;;;;;;5055908;28;20044;-77
2022/06/30 01:26:23;;;;;;;5.82;3.85;;;20.60;99.90;;;;;;5029275;28;20033;-78
2022/06/30 01:28:50;;;;;;;6.45;3.35;;;20.50;99.90;;;;;;5028180;28;20047;-78
2022/06/30 01:31:16;;;;;;;4.70;3.80;;;20.50;99.90;;;;;;5043988;28;20071;-77
2022/06/30 01:33:42;;;;;;;5.43;3.83;;;20.50;99.90;;;;;;5027745;28;20068;-77
2022/06/30 01:36:07;;;;;;;6.15;3.65;;;20.40;99.90;;;;;;5045777;28;20121;-77
2022/06/30 01:38:33;;;;;;;5.00;3.67;;;20.40;99.90;;;;;;5046479;28;20144;-78
2022/06/30 01:40:59;;;;;;;4.43;4.03;;;20.40;99.90;;;;;;5028690;28;20802;-77
2022/06/30 01:43:24;;;;;;;4.75;3.47;;;20.30;99.90;;;;;;5046572;28;20546;-77
2022/06/30 01:45:50;;;;;;;5.07;3.70;;;20.30;99.90;;;;;;5032066;28;20045;-77
2022/06/30 01:48:15;;;;;;;4.55;3.75;;;20.30;99.90;;;;;;5044257;28;20039;-78
2022/06/30 01:50:41;;;;;;;5.15;3.78;;;20.30;99.90;;;;;;5027673;28;20037;-77
2022/06/30 01:53:06;;;;;;;5.15;3.50;;;20.30;99.90;;;;;;5044540;28;20033;-78
2022/06/30 01:55:32;;;;;;;5.50;3.60;;;20.20;99.90;;;;;;5042874;28;20094;-78
2022/06/30 01:57:58;;;;;;;3.80;3.40;;;20.20;99.90;;;;;;5045928;28;20090;-78
2022/06/30 02:00:25;;;;;;;6.15;3.67;;;20.20;99.90;;;;;;5027675;28;20068;-77
2022/06/30 02:02:51;;;;;;;5.57;3.80;;;20.10;99.90;;;;;;5045484;28;20029;-78
2022/06/30 02:05:17;;;;;;;5.63;3.70;;;20.10;99.90;;;;;;5046236;28;20056;-78
2022/06/30 02:07:43;;;;;;;4.95;3.47;;;20.10;99.90;;;;;;5044959;28;20069;-78
2022/06/30 02:10:14;;;;;;;5.60;3.63;;;20.10;99.90;;;;;;5026434;28;20407;-78
2022/06/30 02:12:45;;;;;;;4.22;3.83;;;20.00;99.90;;;;;;5043251;28;20074;-77
2022/06/30 02:15:15;;;;;;;4.03;3.60;;;20.00;99.90;;;;;;5026714;28;20044;-77
2022/06/30 02:17:42;;;;;;;6.75;3.80;;;20.00;99.90;;;;;;5027004;28;20067;-78
2022/06/30 02:20:09;;;;;;;4.57;3.60;;;20.00;99.90;;;;;;5043944;28;20041;-78
2022/06/30 02:22:35;;;;;;;4.28;3.70;;;20.00;99.90;;;;;;5026712;28;20109;-77
2022/06/30 02:25:02;;;;;;;5.70;3.53;;;20.00;99.90;;;;;;5055772;28;20526;-77
2022/06/30 02:27:27;;;;;;;4.32;3.92;;;20.00;99.90;;;;;;5045505;28;20052;-77
2022/06/30 02:29:53;;;;;;;5.22;3.58;;;20.00;99.90;;;;;;5044568;28;20032;-78
2022/06/30 02:32:20;;;;;;;5.18;3.60;;;19.90;99.90;;;;;;5042713;28;20041;-78
2022/06/30 02:34:46;;;;;;;5.97;3.83;;;19.90;99.90;;;;;;5051216;28;20036;-78
2022/06/30 02:37:11;;;;;;;4.53;3.80;;;19.90;99.90;;;;;;5047650;28;20074;-78
2022/06/30 02:39:37;;;;;;;5.30;4.00;;;19.80;99.90;;;;;;5045457;28;20064;-78
2022/06/30 02:42:02;;;;;;;4.13;3.53;;;19.80;99.90;;;;;;5027524;28;20137;-78
2022/06/30 02:44:29;;;;;;;5.05;3.92;;;19.70;99.90;;;;;;5041392;28;20047;-78
2022/06/30 02:46:54;;;;;;;4.40;3.80;;;19.70;99.90;;;;;;5027036;28;20063;-77
2022/06/30 02:49:20;;;;;;;6.65;3.70;;;19.70;99.90;;;;;;5026821;28;20033;-77
2022/06/30 02:51:46;;;;;;;4.93;3.78;;;19.60;99.90;;;;;;5027926;28;20371;-77
2022/06/30 02:54:12;;;;;;;4.07;3.60;;;19.60;99.90;;;;;;5024920;28;20765;-77
2022/06/30 02:56:37;;;;;;;4.00;3.58;;;19.50;99.90;;;;;;5043099;28;20056;-77
2022/06/30 02:59:03;;;;;;;6.13;3.47;;;19.60;99.90;;;;;;5042927;28;20034;-77
2022/06/30 03:01:28;;;;;;;4.95;3.85;;;19.50;99.90;;;;;;5043163;28;20079;-77
2022/06/30 03:03:54;;;;;;;4.25;3.60;;;19.50;99.90;;;;;;5044123;28;20060;-77
2022/06/30 03:06:20;;;;;;;5.25;3.50;;;19.50;99.90;;;;;;5042854;28;20418;-77
2022/06/30 03:08:45;;;;;;;4.13;3.72;;;19.40;99.90;;;;;;5025718;28;20770;-77
2022/06/30 03:11:16;;;;;;;4.20;3.80;;;19.40;99.90;;;;;;5043520;28;20400;-77
2022/06/30 03:13:44;;;;;;;3.67;3.38;;;19.40;99.90;;;;;;5027295;28;20049;-77
2022/06/30 03:16:09;;;;;;;3.90;3.50;;;19.30;99.90;;;;;;5044935;28;20059;-77
2022/06/30 03:18:35;;;;;;;4.43;3.90;;;19.30;99.90;;;;;;5043223;28;20486;-77
2022/06/30 03:21:00;;;;;;;5.00;3.78;;;19.20;99.90;;;;;;5042147;28;20057;-77
2022/06/30 03:23:26;;;;;;;4.53;3.50;;;19.20;99.90;;;;;;5025558;28;20039;-78
2022/06/30 03:25:52;;;;;;;4.55;3.75;;;19.10;99.90;;;;;;5042643;28;20131;-78
2022/06/30 03:28:18;;;;;;;7.10;3.85;;;19.10;99.90;;;;;;5023737;28;20049;-77
2022/06/30 03:30:47;;;;;;;4.60;3.85;;;19.00;99.90;;;;;;5056076;28;20546;-77
2022/06/30 03:33:15;;;;;;;5.20;3.97;;;19.00;99.90;;;;;;5040705;28;20040;-77
2022/06/30 03:35:41;;;;;;;4.82;3.85;;;19.00;99.90;;;;;;5039502;28;20052;-77
2022/06/30 03:38:07;;;;;;;8.43;3.97;;;19.00;99.90;;;;;;5025050;28;20045;-77
2022/06/30 03:40:33;;;;;;;5.05;3.67;;;18.90;99.90;;;;;;5054857;28;20037;-77
2022/06/30 03:42:59;;;;;;;5.85;3.55;;;18.90;99.90;;;;;;5042561;28;20037;-77
2022/06/30 03:45:25;;;;;;;5.40;3.90;;;18.90;99.90;;;;;;5041821;28;20037;-77
2022/06/30 03:47:51;;;;;;;4.78;3.63;;;18.90;99.90;;;;;;5041889;28;20110;-77
2022/06/30 03:50:16;;;;;;;4.95;3.80;;;18.90;99.90;;;;;;5024837;28;20040;-77
2022/06/30 03:52:42;;;;;;;4.80;3.90;;;19.00;99.90;;;;;;5039421;28;20037;-77
2022/06/30 03:55:08;;;;;;;5.68;3.60;;;19.00;99.90;;;;;;5041254;28;20091;-77
2022/06/30 03:57:35;;;;;;;4.70;3.85;;;19.00;99.90;;;;;;5040716;28;20044;-77
2022/06/30 04:00:01;;;;;;;4.65;4.10;;;19.00;99.90;;;;;;5041663;28;20112;-77
2022/06/30 04:02:26;;;;;;;5.78;4.15;;;19.00;99.90;;;;;;5042479;28;20124;-77
2022/06/30 04:04:52;;;;;;;4.35;3.75;;;19.00;99.90;;;;;;5026675;28;20490;-77
2022/06/30 04:07:17;;;;;;;6.00;3.80;;;19.00;99.90;;;;;;5043985;28;20040;-77
2022/06/30 04:09:43;;;;;;;5.43;4.03;;;19.10;99.90;;;;;;5040539;28;20045;-77
2022/06/30 04:12:09;;;;;;;4.20;3.80;;;19.10;99.90;;;;;;5040666;28;20458;-77
2022/06/30 04:14:35;;;;;;;6.00;3.85;;;19.20;99.90;;;;;;5039412;28;20065;-77
2022/06/30 04:17:00;;;;;;;4.60;4.07;;;19.20;99.90;;;;;;5026296;28;20535;-77
2022/06/30 04:19:26;;;;;;;5.15;3.90;;;19.20;99.90;;;;;;5023235;28;20495;-77
2022/06/30 04:21:52;;;;;;;7.78;4.20;;;19.30;99.90;;;;;;5042541;28;20128;-77
2022/06/30 04:24:17;;;;;;;6.57;4.00;;;19.30;99.90;;;;;;5043940;28;20116;-77
2022/06/30 04:26:43;;;;;;;4.40;3.80;;;19.30;99.90;;;;;;5042297;28;20036;-78
2022/06/30 04:29:08;;;;;;;6.10;3.88;;;19.30;99.90;;;;;;5024378;28;20033;-77
2022/06/30 04:34:18;;;;;;;8.23;4.03;;;19.40;99.90;;;;;;5038103;28;20128;-77
2022/06/30 04:36:44;;;;;;;6.95;4.13;;;19.50;99.90;;;;;;5040714;28;20049;-77
2022/06/30 04:39:09;;;;;;;4.93;4.10;;;19.50;99.90;;;;;;5042117;28;20518;-77
2022/06/30 04:41:36;;;;;;;5.30;3.90;;;19.60;99.90;;;;;;5039231;28;20477;-77
2022/06/30 04:44:02;;;;;;;6.07;4.10;;;19.60;99.90;;;;;;5040451;28;20037;-77
2022/06/30 04:46:28;;;;;;;4.50;3.78;;;19.80;99.90;;;;;;5043610;28;20044;-76
2022/06/30 04:48:54;;;;;;;5.97;3.70;;;19.80;99.90;;;;;;5025606;28;20037;-77
2022/06/30 04:51:20;;;;;;;5.80;3.70;;;19.90;99.90;;;;;;5041799;28;20068;-77
2022/06/30 04:53:46;;;;;;;5.50;3.72;;;19.90;99.90;;;;;;5040107;28;20041;-78
2022/06/30 04:56:12;;;;;;;4.88;3.83;;;20.00;99.90;;;;;;5041778;28;20037;-77
2022/06/30 04:58:38;;;;;;;4.40;3.72;;;20.10;99.90;;;;;;5045044;28;20041;-78
2022/06/30 05:01:04;;;;;;;6.13;4.22;;;20.10;99.90;;;;;;5025237;28;20055;-77
2022/06/30 05:03:30;;;;;;;7.00;4.35;;;20.20;99.90;;;;;;5023931;28;20516;-78
2022/06/30 05:05:56;;;;;;;6.47;4.65;;;20.20;99.90;;;;;;5045216;28;20124;-77
2022/06/30 05:08:22;;;;;;;7.35;4.43;;;20.20;99.90;;;;;;5024187;28;20064;-77
2022/06/30 05:10:48;;;;;;;5.53;4.32;;;20.20;99.90;;;;;;5041848;28;20132;-78
2022/06/30 05:13:13;;;;;;;5.43;4.60;;;20.20;99.90;;;;;;5041268;28;20037;-75
2022/06/30 05:15:39;;;;;;;8.20;4.82;;;20.20;99.90;;;;;;5039753;28;20087;-78
2022/06/30 05:18:05;;;;;;;9.10;4.65;;;20.20;99.90;;;;;;5041857;28;20509;-77
2022/06/30 05:20:31;;;;;;;8.43;4.45;;;20.20;99.90;;;;;;5024154;28;20064;-78
2022/06/30 05:22:57;;;;;;;7.90;4.20;;;20.30;99.90;;;;;;5024677;28;20032;-77
2022/06/30 05:28:08;;;;;;;7.60;4.65;;;20.40;99.90;;;;;;5041916;28;20040;-76
2022/06/30 05:30:33;;;;;;;7.68;4.63;;;20.40;99.90;;;;;;5043449;28;20041;-77
2022/06/30 05:32:59;;;;;;;4.95;4.45;;;20.50;99.90;;;;;;5043211;28;20037;-77
2022/06/30 05:35:25;;;;;;;8.88;5.03;;;20.60;99.90;;;;;;5043149;28;20124;-77
2022/06/30 05:37:50;;;;;;;6.78;4.90;;;20.60;99.90;;;;;;5045809;28;20445;-77
2022/06/30 05:40:16;;;;;;;6.13;4.55;;;20.60;99.90;;;;;;5028514;28;20719;-76
2022/06/30 05:42:41;;;;;;;5.63;4.25;;;20.70;99.90;;;;;;5046993;28;20375;-77
2022/06/30 05:45:08;;;;;;;5.90;4.50;;;20.70;99.90;;;;;;5043910;28;20037;-77
2022/06/30 05:47:33;;;;;;;5.40;4.15;;;20.70;99.90;;;;;;5045447;28;20076;-77
2022/06/30 05:49:59;;;;;;;5.78;4.25;;;20.70;99.90;;;;;;5044659;28;20068;-78
2022/06/30 05:52:24;;;;;;;5.90;4.70;;;20.80;99.90;;;;;;5043559;28;20124;-77
2022/06/30 05:54:50;;;;;;;6.05;4.60;;;20.90;99.90;;;;;;5027738;28;20060;-76
2022/06/30 05:57:16;;;;;;;6.97;4.68;;;21.00;99.90;;;;;;5043111;28;20044;-77
2022/06/30 05:59:41;;;;;;;5.60;4.50;;;21.00;99.90;;;;;;5043002;28;20048;-78
2022/06/30 06:02:07;;;;;;;5.28;4.70;;;21.10;99.90;;;;;;5044453;28;20491;-77
2022/06/30 06:04:34;;;;;;;5.35;4.75;;;21.10;99.90;;;;;;5044407;28;20033;-78
2022/06/30 06:07:00;;;;;;;5.20;4.70;;;21.20;99.90;;;;;;5046229;28;20074;-77
2022/06/30 06:09:26;;;;;;;8.00;4.82;;;21.30;99.90;;;;;;5044009;28;20080;-77
2022/06/30 06:11:51;;;;;;;6.97;4.90;;;21.40;99.90;;;;;;5049934;28;20490;-77
2022/06/30 06:14:19;;;;;;;5.15;4.45;;;21.40;99.90;;;;;;5041523;28;20099;-76
2022/06/30 06:16:44;;;;;;;5.20;4.65;;;21.60;99.90;;;;;;5048929;28;20095;-76
2022/06/30 06:19:11;;;;;;;5.78;4.70;;;21.70;99.90;;;;;;5049019;28;20063;-78
2022/06/30 06:21:37;;;;;;;7.05;5.13;;;21.80;99.90;;;;;;5050296;28;20526;-77
2022/06/30 06:24:03;;;;;;;9.23;4.72;;;21.80;99.90;;;;;;5045483;28;20044;-78
2022/06/30 06:26:28;;;;;;;5.20;4.70;;;22.00;99.90;;;;;;5051771;28;20430;-77
2022/06/30 06:29:06;;;;;;;8.18;4.63;;;22.00;99.90;;;;;;5045196;28;20059;-78
2022/06/30 06:31:39;;;;;;;6.43;5.00;;;22.10;99.90;;;;;;5027676;28;20067;-77
2022/06/30 06:34:05;;;;;;;;;;;22.20;99.90;;;;;;5042553;28;20387;-77
2022/06/30 06:36:32;;;;;;;7.18;4.60;;;22.20;99.90;;;;;;5044192;28;20275;-77
2022/06/30 06:38:57;;;;;;;6.38;4.50;;;22.30;99.90;;;;;;5027780;28;20033;-78
2022/06/30 06:41:24;;;;;;;5.45;4.95;;;22.40;99.90;;;;;;5044570;28;20078;-77
2022/06/30 06:43:50;;;;;;;5.90;4.82;;;22.50;99.90;;;;;;5044232;28;20032;-76
2022/06/30 06:46:17;;;;;;;7.00;5.57;;;22.60;99.90;;;;;;5041867;28;20033;-77
2022/06/30 06:48:43;;;;;;;8.10;5.05;;;22.60;99.90;;;;;;5044075;28;20119;-77
2022/06/30 06:51:09;;;;;;;6.63;5.20;;;22.60;99.90;;;;;;5043756;28;20495;-78
2022/06/30 06:53:36;;;;;;;6.38;4.90;;;22.60;99.90;;;;;;5044321;28;20493;-75
2022/06/30 06:56:02;;;;;;;8.63;4.65;;;22.70;99.90;;;;;;5024117;28;20112;-77
2022/06/30 06:58:28;;;;;;;5.63;4.47;;;22.80;99.90;;;;;;5045133;28;20036;-77
2022/06/30 07:00:54;;;;;;;5.63;4.80;;;22.90;99.90;;;;;;5042524;28;20044;-78
2022/06/30 07:03:20;;;;;;;5.72;4.75;;;23.10;99.90;;;;;;5030641;28;20131;-77
2022/06/30 07:05:46;;;;;;;7.65;5.32;;;23.20;99.90;;;;;;5040624;28;20138;-77
2022/06/30 07:08:11;;;;;;;5.50;5.00;;;23.20;99.90;;;;;;5044032;28;20037;-78
2022/06/30 07:10:37;;;;;;;6.82;5.18;;;23.30;99.90;;;;;;5047905;28;20087;-77
2022/06/30 07:13:02;;;;;;;6.43;4.93;;;23.30;99.90;;;;;;5041679;28;20522;-76
2022/06/30 07:15:28;;;;;;;5.18;4.60;;;23.40;99.90;;;;;;5025140;28;20078;-78
2022/06/30 07:17:54;;;;;;;6.40;4.93;;;23.50;99.90;;;;;;5044476;28;20025;-78
2022/06/30 07:20:19;;;;;;;5.35;4.72;;;23.60;99.90;;;;;;5041619;28;20037;-77
2022/06/30 07:22:45;;;;;;;7.07;5.03;;;23.60;99.90;;;;;;5044118;28;20060;-77
2022/06/30 07:25:11;;;;;;;6.68;4.97;;;23.70;99.90;;;;;;5041741;28;20123;-78
2022/06/30 07:27:37;;;;;;;5.22;4.72;;;23.80;99.90;;;;;;5044783;28;20079;-77
2022/06/30 07:30:03;;;;;;;6.80;5.28;;;23.80;99.90;;;;;;5043905;28;20037;-78
2022/06/30 07:32:29;;;;;;;7.65;5.18;;;24.00;99.90;;;;;;5025848;28;20076;-77
2022/06/30 07:34:54;;;;;;;15.43;5.75;;;24.10;99.90;;;;;;5042966;28;20083;-76
2022/06/30 07:37:20;;;;;;;7.30;5.32;;;24.20;99.90;;;;;;5051205;28;20044;-77
2022/06/30 07:39:46;;;;;;;8.98;5.30;;;24.20;99.90;;;;;;5042347;28;20514;-76
2022/06/30 07:42:11;;;;;;;7.43;4.93;;;24.30;99.90;;;;;;5044201;28;20044;-76
2022/06/30 07:44:37;;;;;;;6.50;5.18;;;24.40;99.90;;;;;;5041196;28;20033;-77
2022/06/30 07:47:02;;;;;;;6.13;5.22;;;24.40;99.90;;;;;;5046868;28;20033;-77
2022/06/30 07:49:28;;;;;;;6.05;5.30;;;24.50;99.90;;;;;;5034233;28;20056;-78
2022/06/30 07:51:54;;;;;;;8.38;4.78;;;24.70;99.90;;;;;;5014107;28;20041;-77
2022/06/30 07:54:20;;;;;;;8.80;5.40;;;24.70;99.90;;;;;;5049372;28;20090;-76
2022/06/30 07:56:45;;;;;;;10.30;5.55;;;24.90;99.90;;;;;;5047816;28;20034;-74
2022/06/30 07:59:12;;;;;;;6.72;5.35;;;25.00;99.90;;;;;;5044977;28;20038;-77
2022/06/30 08:01:37;;;;;;;8.45;5.55;;;25.00;99.90;;;;;;5030421;28;20114;-77
2022/06/30 08:04:03;;;;;;;6.57;5.65;;;25.10;99.90;;;;;;5040451;28;20562;-77
2022/06/30 08:06:29;;;;;;;9.50;5.25;;;25.20;99.90;;;;;;5025465;28;20045;-77
2022/06/30 08:08:54;;;;;;;7.40;5.95;;;25.20;99.90;;;;;;5030429;28;20415;-77
2022/06/30 08:11:20;;;;;;;7.53;5.60;;;25.30;99.90;;;;;;5041628;28;20451;-77
2022/06/30 08:13:46;;;;;;;9.18;5.55;;;25.40;99.90;;;;;;5036244;28;20041;-78
2022/06/30 08:16:13;;;;;;;7.10;5.50;;;25.50;99.90;;;;;;5030115;28;20049;-77
2022/06/30 08:18:38;;;;;;;7.35;5.35;;;25.60;99.90;;;;;;5030274;28;20514;-77
2022/06/30 08:21:04;;;;;;;6.18;5.50;;;25.70;99.90;;;;;;5030388;28;20041;-77
2022/06/30 08:23:29;;;;;;;7.88;5.65;;;25.80;99.90;;;;;;5030562;28;20072;-78
2022/06/30 08:25:55;;;;;;;6.75;5.68;;;25.90;99.90;;;;;;5029746;28;20064;-77
2022/06/30 08:28:22;;;;;;;7.82;6.22;;;26.00;99.90;;;;;;5041776;28;20068;-77
2022/06/30 08:30:50;;;;;;;5.80;5.20;;;26.00;99.90;;;;;;5037214;28;20033;-77
2022/06/30 08:33:16;;;;;;;6.07;5.35;;;26.10;99.90;;;;;;5037230;28;20065;-78
2022/06/30 08:35:41;;;;;;;6.03;5.20;;;26.20;99.90;;;;;;5040198;28;20075;-77
2022/06/30 08:38:07;;;;;;;7.00;5.30;;;26.30;99.90;;;;;;5049418;28;20120;-78
2022/06/30 08:43:19;;;;;;;6.85;5.40;;;26.50;99.90;;;;;;5050773;28;20069;-78
2022/06/30 08:45:46;;;;;;;6.50;5.63;;;26.50;99.90;;;;;;5043779;28;20063;-77
2022/06/30 08:48:12;;;;;;;8.18;5.85;;;26.60;99.90;;;;;;5046381;28;20079;-77
2022/06/30 08:50:42;;;;;;;7.20;5.70;;;26.70;99.90;;;;;;5047180;28;20041;-77
2022/06/30 08:53:09;;;;;;;7.10;6.40;;;26.70;99.90;;;;;;5048684;28;20056;-78
2022/06/30 08:55:36;;;;;;;9.00;6.60;;;26.80;99.90;;;;;;5024509;28;20109;-77
2022/06/30 08:58:07;;;;;;;8.20;6.30;;;26.70;99.90;;;;;;5061093;28;20037;-78
2022/06/30 09:00:36;;;;;;;6.65;5.32;;;26.60;99.90;;;;;;5046329;28;20120;-79
2022/06/30 09:03:03;;;;;;;6.55;5.82;;;26.60;99.90;;;;;;5020379;28;20073;-77
2022/06/30 09:05:29;;;;;;;7.72;6.57;;;26.60;99.90;;;;;;5044718;28;20045;-78
2022/06/30 09:07:54;;;;;;;7.43;6.00;;;26.60;99.90;;;;;;5049204;28;20041;-79
2022/06/30 09:10:22;;;;;;;8.52;6.43;;;26.70;99.90;;;;;;5047360;28;20115;-76
2022/06/30 09:13:03;;;;;;;7.15;6.45;;;26.80;99.90;;;;;;5052656;28;20041;-77
2022/06/30 09:15:37;;;;;;;8.40;6.70;;;26.90;99.90;;;;;;5049752;28;20041;-78
2022/06/30 09:18:04;;;;;;;9.32;7.00;;;27.00;99.90;;;;;;5052095;28;20490;-78
2022/06/30 09:20:38;;;;;;;7.10;6.25;;;27.00;99.90;;;;;;5034341;28;20069;-78
2022/06/30 09:23:27;;;;;;;7.47;6.70;;;27.10;99.90;;;;;;5050587;28;20039;-79
2022/06/30 09:25:56;;;;;;;10.45;7.72;;;27.10;99.90;;;;;;5047588;28;20063;-79
2022/06/30 09:28:45;;;;;;;10.25;8.20;;;27.20;99.90;;;;;;5035181;28;20041;-79
2022/06/30 09:31:15;;;;;;;9.60;8.00;;;27.20;99.90;;;;;;5043012;28;20120;-78
2022/06/30 09:33:45;;;;;;;8.38;7.57;;;27.20;99.90;;;;;;5050351;28;20036;-78
2022/06/30 09:36:28;;;;;;;12.02;9.90;;;27.30;99.90;;;;;;5052730;28;20395;-79
2022/06/30 09:39:06;;;;;;;10.85;8.70;;;27.20;99.90;;;;;;5041548;28;20032;-78
2022/06/30 09:41:41;;;;;;;10.98;8.27;;;27.30;99.90;;;;;;5070603;28;20049;-79
2022/06/30 09:44:16;;;;;;;10.68;8.73;;;27.30;99.90;;;;;;5046362;28;20113;-78
2022/06/30 09:47:12;;;;;;;9.43;8.52;;;27.30;99.90;;;;;;5054534;28;20068;-78
2022/06/30 09:49:40;;;;;;;12.38;11.27;;;27.40;99.90;;;;;;5034149;28;20518;-78
2022/06/30 09:52:18;;;;;;;11.48;9.02;;;27.40;99.90;;;;;;5052238;28;20455;-79
2022/06/30 09:55:00;;;;;;;12.20;10.10;;;27.40;99.90;;;;;;5050234;28;20041;-78
2022/06/30 09:57:29;;;;;;;10.65;9.40;;;27.40;99.90;;;;;;5032357;28;20113;-79
2022/06/30 10:00:07;;;;;;;12.02;10.43;;;27.60;99.90;;;;;;5044468;28;20136;-79
2022/06/30 10:02:36;;;;;;;12.13;10.00;;;27.80;99.90;;;;;;5058706;28;20037;-79
2022/06/30 10:05:04;;;;;;;11.85;9.60;;;27.90;99.90;;;;;;5045897;28;20099;-78
2022/06/30 10:07:34;;;;;;;11.68;10.20;;;28.00;99.90;;;;;;5048564;28;20066;-79
2022/06/30 10:10:00;;;;;;;10.55;9.55;;;28.10;99.90;;;;;;5055257;28;20107;-80
2022/06/30 10:12:27;;;;;;;9.63;8.73;;;28.10;99.90;;;;;;5052002;28;20048;-80
2022/06/30 10:14:54;;;;;;;10.73;9.15;;;28.10;99.90;;;;;;5031615;28;20062;-79
2022/06/30 10:17:23;;;;;;;17.85;10.45;;;28.00;99.90;;;;;;5046374;28;20045;-78
2022/06/30 10:19:50;;;;;;;10.82;8.20;;;27.90;99.90;;;;;;5034808;28;20099;-79
2022/06/30 10:22:16;;;;;;;9.45;8.13;;;27.80;99.90;;;;;;5052921;28;20036;-79
2022/06/30 10:24:41;;;;;;;9.52;8.10;;;27.60;99.90;;;;;;5053936;28;20044;-79
2022/06/30 10:27:14;;;;;;;9.25;8.13;;;27.50;99.90;;;;;;5045279;28;20449;-78
2022/06/30 10:30:03;;;;;;;9.48;8.38;;;27.20;99.90;;;;;;5052275;28;20483;-78
2022/06/30 10:32:43;;;;;;;10.27;8.35;;;27.00;99.90;;;;;;5068814;28;20106;-77
2022/06/30 10:35:17;;;;;;;9.90;7.70;;;27.10;99.90;;;;;;5051377;28;20575;-78
2022/06/30 10:37:52;;;;;;;8.93;8.05;;;27.50;99.90;;;;;;5052234;28;20040;-78
2022/06/30 10:40:53;;;;;;;9.68;8.68;;;28.00;99.90;;;;;;5053231;28;20411;-79
2022/06/30 10:43:19;;;;;;;9.35;8.38;;;28.40;99.90;;;;;;5053849;28;20115;-79
2022/06/30 10:46:05;;;;;;;9.18;8.13;;;28.70;99.90;;;;;;5053298;28;20037;-79
2022/06/30 10:48:51;;;;;;;9.10;7.07;;;29.00;99.90;;;;;;5053212;28;20045;-79
2022/06/30 10:51:16;;;;;;;7.75;6.95;;;28.90;99.90;;;;;;5054219;28;20044;-79
2022/06/30 10:53:42;;;;;;;7.38;5.32;;;28.60;99.90;;;;;;5051245;28;20040;-79
2022/06/30 10:56:09;;;;;;;14.30;6.55;;;28.20;99.90;;;;;;5041864;28;20040;-79
2022/06/30 10:58:35;;;;;;;8.32;5.72;;;28.00;99.90;;;;;;5040307;28;20025;-79
2022/06/30 11:01:11;;;;;;;8.10;5.35;;;27.70;99.90;;;;;;5051953;28;20411;-79
2022/06/30 11:03:37;;;;;;;6.72;5.32;;;27.40;99.90;;;;;;5034949;28;20033;-79
2022/06/30 11:06:10;;;;;;;8.90;5.40;;;27.20;99.90;;;;;;5036935;28;20124;-78
2022/06/30 11:11:22;;;;;;;9.15;5.70;;;26.90;99.90;;;;;;5067145;28;20535;-78
2022/06/30 11:14:00;;;;;;;7.22;5.82;;;26.90;99.90;;;;;;5048005;28;20072;-78
2022/06/30 11:16:26;;;;;;;10.20;5.25;;;27.00;99.90;;;;;;5043403;28;20495;-78
2022/06/30 11:18:51;;;;;;;9.60;4.47;;;27.30;99.90;;;;;;5044246;28;20041;-78
2022/06/30 11:21:17;;;;;;;6.65;5.82;;;27.70;99.90;;;;;;5049287;28;20029;-78
2022/06/30 11:23:45;;;;;;;8.93;6.88;;;27.80;99.90;;;;;;5047503;28;20040;-77
2022/06/30 11:28:59;;;;;;;9.20;8.30;;;27.60;99.90;;;;;;5045288;28;20099;-78
2022/06/30 11:31:33;;;;;;;11.02;7.60;;;27.60;99.90;;;;;;5042817;28;20037;-77
2022/06/30 11:34:14;;;;;;;7.00;6.07;;;27.80;99.90;;;;;;5040578;28;20112;-78
2022/06/30 11:36:42;;;;;;;8.13;5.38;;;28.20;99.90;;;;;;5067259;28;20140;-79
2022/06/30 11:39:08;;;;;;;6.63;4.85;;;28.50;99.90;;;;;;5039745;28;20033;-78
2022/06/30 11:44:21;;;;;;;6.75;4.78;;;29.20;99.90;;;;;;5047540;28;20038;-78
2022/06/30 11:46:55;;;;;;;8.02;5.00;;;29.50;99.90;;;;;;5039072;28;20037;-79
2022/06/30 11:49:22;;;;;;;5.35;4.18;;;29.40;99.20;;;;;;5049886;28;20174;-79
2022/06/30 11:51:48;;;;;;;8.32;5.35;;;29.30;98.00;;;;;;5048951;28;20039;-78
2022/06/30 11:54:15;;;;;;;5.60;4.60;;;29.40;98.80;;;;;;5049355;28;20120;-80
2022/06/30 11:56:53;;;;;;;7.80;5.28;;;29.50;99.00;;;;;;5046485;28;20479;-80
2022/06/30 11:59:19;;;;;;;6.57;5.53;;;29.80;99.80;;;;;;5032442;28;20083;-80
2022/06/30 12:02:06;;;;;;;8.30;6.28;;;30.00;98.80;;;;;;5035597;28;20043;-79
2022/06/30 12:04:33;;;;;;;8.32;4.85;;;29.90;97.30;;;;;;5039329;28;20037;-79
2022/06/30 12:07:05;;;;;;;8.95;4.78;;;30.10;98.40;;;;;;5046576;28;20075;-79
2022/06/30 12:09:32;;;;;;;9.85;5.80;;;30.30;98.40;;;;;;5042515;28;20033;-80
2022/06/30 12:11:58;;;;;;;9.25;5.82;;;30.40;98.00;;;;;;5042178;28;20037;-79
2022/06/30 12:14:25;;;;;;;9.60;5.93;;;30.00;98.00;;;;;;5044342;28;20041;-78
2022/06/30 12:16:55;;;;;;;8.60;4.82;;;29.50;97.70;;;;;;5045537;28;20044;-79
2022/06/30 12:19:23;;;;;;;8.20;4.80;;;29.10;97.80;;;;;;5043649;28;20040;-79
2022/06/30 12:21:50;;;;;;;10.88;5.07;;;28.90;98.00;;;;;;5027675;28;20044;-79
2022/06/30 12:24:16;;;;;;;10.15;5.00;;;28.90;98.30;;;;;;5059677;28;20655;-79
2022/06/30 12:26:52;;;;;;;7.90;4.70;;;28.50;97.80;;;;;;5042016;28;20064;-79
2022/06/30 12:29:20;;;;;;;6.10;4.85;;;28.60;97.90;;;;;;5040255;28;20774;-79
2022/06/30 12:32:20;;;;;;;8.45;4.40;;;29.00;97.90;;;;;;5039394;28;20094;-79
2022/06/30 12:35:07;;;;;;;8.32;5.63;;;29.30;96.20;;;;;;5039208;28;20552;-79
2022/06/30 12:37:38;;;;;;;6.32;5.38;;;29.20;97.00;;;;;;5041947;28;20048;-79
2022/06/30 12:40:05;;;;;;;9.27;5.28;;;29.00;97.30;;;;;;5032036;28;20061;-79
2022/06/30 12:42:48;;;;;;;7.47;4.25;;;28.80;97.30;;;;;;5047686;28;20040;-79
2022/06/30 12:45:54;;;;;;;5.88;4.60;;;28.60;97.40;;;;;;5054440;28;20116;-77
2022/06/30 12:48:50;;;;;;;5.68;4.60;;;28.40;96.20;;;;;;5043995;28;20044;-78
2022/06/30 12:51:28;;;;;;;8.85;4.10;;;28.20;96.30;;;;;;5045586;28;20479;-78
2022/06/30 12:54:04;;;;;;;7.47;3.97;;;28.00;96.40;;;;;;5043819;28;20539;-78
2022/06/30 12:56:31;;;;;;;8.23;3.40;;;28.10;96.90;;;;;;5044236;28;20507;-79
2022/06/30 12:59:03;;;;;;;5.90;3.53;;;28.20;96.50;;;;;;5043771;28;20037;-78
2022/06/30 13:01:31;;;;;;;6.63;3.63;;;28.30;95.50;;;;;;5044417;28;20682;-77
2022/06/30 13:03:59;;;;;;;8.10;3.85;;;28.60;95.10;;;;;;5060460;28;20033;-79
2022/06/30 13:06:28;;;;;;;8.15;5.10;;;29.00;95.60;;;;;;5031303;28;20578;-80
2022/06/30 13:08:54;;;;;;;7.72;6.57;;;29.30;96.90;;;;;;5044234;28;20045;-80